Time;durP1;ratioP1;P1;durP2;ratioP2;P2;SDS_P1;SDS_P2;PMS_P1;PMS_P2;Temp;Humidity;BMP_temperature;BMP_pressure;BME280_temperature;BME280_humidity;BME280_pressure;Samples;Min_cycle;Max_cycle;Signal;HPM_P1;HPM_P2
2022/05/19 00:00:14;;;;;;;;;;;;;;;21.04;63.66;101552.31;1045460;28;1534;-59
2022/05/19 00:01:04;;;;;;;;;;;;;;;21.04;63.95;101549.59;1041738;28;670;-59
2022/05/19 00:01:55;;;;;;;;;;;;;;;21.03;63.79;101547.03;1040146;28;1918;-60
2022/05/19 00:02:45;;;;;;;;;;;;;;;21.04;63.74;101546.91;1041479;28;681;-59
2022/05/19 00:03:36;;;;;;;;;;;;;;;21.04;63.62;101556.88;1045774;28;1325;-60
2022/05/19 00:04:26;;;;;;;;;;;;;;;21.04;64.04;101549.59;1047810;28;670;-60
2022/05/19 00:05:17;;;;;;;;;;;;;;;21.03;63.88;101547.03;1049745;28;666;-59
2022/05/19 00:06:07;;;;;;;;;;;;;;;21.04;63.85;101543.31;1045811;28;702;-59
2022/05/19 00:06:57;;;;;;;;;;;;;;;21.02;63.89;101548.91;1044615;28;1503;-59
2022/05/19 00:07:48;;;;;;;;;;;;;;;21.03;63.70;101542.47;1049341;28;642;-59
2022/05/19 00:08:38;;;;;;;;;;;;;;;21.03;64.09;101537.06;1048957;28;1406;-60
2022/05/19 00:09:29;;;;;;;;;;;;;;;21.03;63.74;101533.50;1046039;28;1694;-60
2022/05/19 00:10:19;;;;;;;;;;;;;;;21.03;63.79;101537.06;1046082;28;1404;-60
2022/05/19 00:11:09;;;;;;;;;;;;;;;21.03;63.90;101525.34;1041757;28;680;-59
2022/05/19 00:12:00;;;;;;;;;;;;;;;21.03;64.07;101526.22;1042235;28;652;-59
2022/05/19 00:12:50;;;;;;;;;;;;;;;21.04;63.61;101535.19;1046499;28;622;-60
2022/05/19 00:13:41;;;;;;;;;;;;;;;21.03;63.81;101523.50;1045394;28;661;-60
2022/05/19 00:14:31;;;;;;;;;;;;;;;21.03;63.81;101523.50;1044963;28;678;-60
2022/05/19 00:15:21;;;;;;;;;;;;;;;21.04;64.13;101524.34;1045441;28;744;-60
2022/05/19 00:16:12;;;;;;;;;;;;;;;21.03;64.22;101517.22;1044767;28;670;-60
2022/05/19 00:17:02;;;;;;;;;;;;;;;21.02;64.15;101519.09;1047078;28;1534;-60
2022/05/19 00:17:53;;;;;;;;;;;;;;;21.03;63.89;101525.34;1050386;28;624;-61
2022/05/19 00:18:43;;;;;;;;;;;;;;;21.03;64.01;101518.09;1048521;28;733;-61
2022/05/19 00:19:34;;;;;;;;;;;;;;;21.04;64.00;101514.38;1048644;28;634;-61
2022/05/19 00:20:24;;;;;;;;;;;;;;;21.04;64.13;101505.38;1049270;28;1414;-61
2022/05/19 00:21:14;;;;;;;;;;;;;;;21.04;64.11;101517.06;1053324;28;710;-63
2022/05/19 00:22:05;;;;;;;;;;;;;;;21.04;63.94;101514.38;1054457;28;735;-61
2022/05/19 00:22:55;;;;;;;;;;;;;;;21.06;63.87;101515.06;1053262;28;673;-60
2022/05/19 00:23:46;;;;;;;;;;;;;;;21.05;63.91;101512.50;1053373;28;1460;-60
2022/05/19 00:24:36;;;;;;;;;;;;;;;21.04;64.22;101510.81;1044981;28;669;-60
2022/05/19 00:25:26;;;;;;;;;;;;;;;21.04;63.78;101506.25;1046023;28;602;-60
2022/05/19 00:26:17;;;;;;;;;;;;;;;21.05;64.05;101512.50;1045963;28;629;-60
2022/05/19 00:27:07;;;;;;;;;;;;;;;21.04;63.92;101506.25;1046204;28;1570;-60
2022/05/19 00:27:58;;;;;;;;;;;;;;;21.03;64.03;101507.25;1045393;28;614;-60
2022/05/19 00:28:48;;;;;;;;;;;;;;;21.04;63.84;101506.25;1044854;28;572;-60
2022/05/19 00:29:39;;;;;;;;;;;;;;;21.04;63.92;101502.69;1044887;28;607;-60
2022/05/19 00:30:29;;;;;;;;;;;;;;;21.04;64.11;101506.25;1046995;28;1408;-59
2022/05/19 00:31:19;;;;;;;;;;;;;;;21.04;64.08;101508.09;1049271;28;689;-60
2022/05/19 00:32:10;;;;;;;;;;;;;;;21.04;64.17;101506.25;1051917;28;656;-59
2022/05/19 00:33:00;;;;;;;;;;;;;;;21.03;64.10;101504.53;1057921;27;605;-60
2022/05/19 00:33:50;;;;;;;;;;;;;;;21.04;64.31;101506.25;1054287;28;688;-60
2022/05/19 00:34:41;;;;;;;;;;;;;;;21.03;64.36;101501.81;1053886;28;634;-59
2022/05/19 00:35:31;;;;;;;;;;;;;;;21.02;64.33;101500.13;1053989;28;653;-59
2022/05/19 00:36:22;;;;;;;;;;;;;;;21.03;64.16;101500.97;1054436;28;613;-60
2022/05/19 00:37:13;;;;;;;;;;;;;;;21.03;64.40;101501.81;1049367;28;1545;-60
2022/05/19 00:38:03;;;;;;;;;;;;;;;21.03;64.06;101503.69;1048853;28;626;-61
2022/05/19 00:38:53;;;;;;;;;;;;;;;21.02;64.24;101500.13;1048478;28;678;-59
2022/05/19 00:39:44;;;;;;;;;;;;;;;21.03;64.01;101499.13;1044281;28;607;-59
2022/05/19 00:40:34;;;;;;;;;;;;;;;21.03;64.32;101504.53;1048189;28;1400;-59
2022/05/19 00:41:25;;;;;;;;;;;;;;;21.03;64.17;101503.69;1044315;28;1444;-60
2022/05/19 00:43:24;;;;;;;;;;;;;;;21.02;64.54;101501.97;1053004;28;539;-59
2022/05/19 00:44:15;;;;;;;;;;;;;;;21.01;64.25;101498.41;1054290;28;634;-61
2022/05/19 00:45:06;;;;;;;;;;;;;;;21.01;64.41;101511.97;1053188;28;672;-60
2022/05/19 00:45:56;;;;;;;;;;;;;;;21.01;64.35;101502.97;1049895;28;873;-60
2022/05/19 00:46:46;;;;;;;;;;;;;;;21.02;64.20;101507.38;1049255;28;566;-60
2022/05/19 00:47:37;;;;;;;;;;;;;;;21.02;64.16;101501.97;1045818;28;614;-60
2022/05/19 00:48:27;;;;;;;;;;;;;;;21.01;64.46;101498.41;1048472;28;1266;-60
2022/05/19 00:49:18;;;;;;;;;;;;;;;21.01;64.62;101501.13;1045406;28;717;-60
2022/05/19 00:50:08;;;;;;;;;;;;;;;21.00;64.35;101496.69;1045374;28;614;-60
2022/05/19 00:50:59;;;;;;;;;;;;;;;21.03;64.43;101500.97;1048811;28;1232;-61
2022/05/19 00:51:49;;;;;;;;;;;;;;;21.03;64.08;101499.13;1050150;28;606;-60
2022/05/19 00:52:39;;;;;;;;;;;;;;;21.02;64.56;101496.56;1050163;28;693;-60
2022/05/19 00:53:30;;;;;;;;;;;;;;;21.02;64.55;101491.13;1049487;28;630;-60
2022/05/19 00:54:20;;;;;;;;;;;;;;;21.02;64.46;101491.13;1049498;28;740;-60
2022/05/19 00:55:11;;;;;;;;;;;;;;;21.03;64.20;101498.25;1045084;28;717;-61
2022/05/19 00:56:01;;;;;;;;;;;;;;;21.01;64.51;101487.56;1043871;28;641;-61
2022/05/19 00:56:51;;;;;;;;;;;;;;;21.02;64.51;101497.41;1048867;28;1486;-62
2022/05/19 00:57:42;;;;;;;;;;;;;;;21.01;64.68;101490.28;1046633;28;652;-61
2022/05/19 00:58:32;;;;;;;;;;;;;;;21.02;64.20;101493.84;1045895;28;650;-61
2022/05/19 00:59:23;;;;;;;;;;;;;;;21.00;64.55;101488.56;1045929;28;680;-61
2022/05/19 01:00:13;;;;;;;;;;;;;;;21.02;64.53;101485.72;1045839;28;629;-61
2022/05/19 01:01:04;;;;;;;;;;;;;;;21.02;64.54;101483.84;1045927;28;709;-61
2022/05/19 01:01:55;;;;;;;;;;;;;;;21.02;64.33;101481.16;1045822;28;1894;-61
2022/05/19 01:02:45;;;;;;;;;;;;;;;21.01;64.22;101481.28;1045424;28;721;-61
2022/05/19 01:03:36;;;;;;;;;;;;;;;21.02;64.23;101473.00;1045928;28;634;-62
2022/05/19 01:04:26;;;;;;;;;;;;;;;21.02;64.47;101474.88;1045809;28;598;-61
2022/05/19 01:05:17;;;;;;;;;;;;;;;21.01;64.72;101471.31;1045910;28;669;-62
2022/05/19 01:06:07;;;;;;;;;;;;;;;21.02;64.61;101473.00;1045859;28;669;-62
2022/05/19 01:06:57;;;;;;;;;;;;;;;21.02;64.47;101472.16;1046343;28;1499;-62
2022/05/19 01:07:48;;;;;;;;;;;;;;;21.03;64.55;101473.88;1050016;28;780;-62
2022/05/19 01:08:38;;;;;;;;;;;;;;;21.02;64.68;101470.31;1049967;28;648;-61
2022/05/19 01:09:29;;;;;;;;;;;;;;;21.03;64.35;101466.59;1046442;28;668;-60
2022/05/19 01:10:19;;;;;;;;;;;;;;;21.02;64.46;101467.59;1045446;28;1004;-61
2022/05/19 01:11:09;;;;;;;;;;;;;;;21.03;64.58;101472.00;1046014;28;701;-61
2022/05/19 01:12:00;;;;;;;;;;;;;;;21.03;64.61;101468.44;1045958;28;662;-61
2022/05/19 01:12:50;;;;;;;;;;;;;;;21.04;64.48;101467.44;1045928;28;771;-60
2022/05/19 01:13:41;;;;;;;;;;;;;;;21.02;64.80;101467.59;1045992;28;614;-61
2022/05/19 01:14:31;;;;;;;;;;;;;;;21.02;64.75;101453.19;1045808;28;669;-60
2022/05/19 01:15:21;;;;;;;;;;;;;;;21.01;64.76;101457.75;1045802;28;697;-60
2022/05/19 01:16:12;;;;;;;;;;;;;;;21.01;64.51;101465.88;1047244;28;1413;-60
2022/05/19 01:17:02;;;;;;;;;;;;;;;21.01;64.85;101457.75;1050879;27;1458;-61
2022/05/19 01:17:53;;;;;;;;;;;;;;;21.00;64.57;101450.63;1045353;28;1485;-60
2022/05/19 01:18:43;;;;;;;;;;;;;;;21.01;64.44;101449.63;1050868;28;618;-60
2022/05/19 01:19:33;;;;;;;;;;;;;;;21.01;64.55;101452.34;1045289;28;1178;-61
2022/05/19 01:20:24;;;;;;;;;;;;;;;21.00;64.73;101447.91;1044617;28;1126;-60
2022/05/19 01:21:14;;;;;;;;;;;;;;;21.00;64.72;101445.22;1047936;28;1180;-60
2022/05/19 01:22:05;;;;;;;;;;;;;;;21.00;64.88;101447.06;1049797;28;1134;-59
2022/05/19 01:22:55;;;;;;;;;;;;;;;21.01;64.74;101443.34;1051277;28;1308;-59
2022/05/19 01:23:46;;;;;;;;;;;;;;;20.99;64.60;101448.06;1047942;28;1205;-59
2022/05/19 01:24:36;;;;;;;;;;;;;;;20.99;64.71;101448.91;1047828;28;1107;-60
2022/05/19 01:25:26;;;;;;;;;;;;;;;20.99;64.66;101457.06;1048648;28;1153;-60
2022/05/19 01:26:17;;;;;;;;;;;;;;;20.99;65.08;101439.94;1048149;28;1139;-62
2022/05/19 01:27:07;;;;;;;;;;;;;;;21.00;64.61;101441.66;1049756;28;1252;-59
2022/05/19 01:27:58;;;;;;;;;;;;;;;20.98;64.68;101436.38;1045580;28;673;-59
2022/05/19 01:28:48;;;;;;;;;;;;;;;20.99;64.83;101432.66;1046716;28;1447;-60
2022/05/19 01:29:39;;;;;;;;;;;;;;;20.98;64.67;101425.53;1049283;28;619;-60
2022/05/19 01:30:29;;;;;;;;;;;;;;;20.98;64.98;101425.53;1049903;28;637;-63
2022/05/19 01:31:20;;;;;;;;;;;;;;;20.99;64.79;101419.13;1049607;28;630;-60
2022/05/19 01:32:10;;;;;;;;;;;;;;;20.99;64.85;101415.56;1049141;28;634;-61
2022/05/19 01:33:01;;;;;;;;;;;;;;;21.00;64.82;101425.38;1048832;28;646;-60
2022/05/19 01:33:51;;;;;;;;;;;;;;;21.00;64.85;101426.25;1048811;28;705;-60
2022/05/19 01:34:41;;;;;;;;;;;;;;;20.99;64.85;101424.53;1048638;28;716;-60
2022/05/19 01:35:33;;;;;;;;;;;;;;;20.99;64.85;101418.25;1049111;28;1287;-61
2022/05/19 01:36:23;;;;;;;;;;;;;;;20.98;65.10;101422.81;1049352;28;657;-61
2022/05/19 01:37:14;;;;;;;;;;;;;;;20.97;65.09;101418.41;1049982;28;692;-61
2022/05/19 01:38:04;;;;;;;;;;;;;;;20.97;64.81;101418.41;1050034;28;630;-60
2022/05/19 01:38:55;;;;;;;;;;;;;;;20.98;64.99;101420.13;1048412;28;1656;-60
2022/05/19 01:39:45;;;;;;;;;;;;;;;20.97;65.00;101413.00;1048767;28;760;-60
2022/05/19 01:40:35;;;;;;;;;;;;;;;20.98;65.05;101419.25;1048785;28;614;-60
2022/05/19 01:41:26;;;;;;;;;;;;;;;20.97;64.96;101423.84;1048796;28;1454;-58
2022/05/19 01:42:16;;;;;;;;;;;;;;;20.98;64.71;101420.13;1052829;28;689;-60
2022/05/19 01:43:07;;;;;;;;;;;;;;;20.97;65.05;101418.41;1053859;28;701;-60
2022/05/19 01:43:57;;;;;;;;;;;;;;;20.97;65.11;101418.41;1057999;28;621;-60
2022/05/19 01:44:47;;;;;;;;;;;;;;;20.97;64.76;101421.13;1055127;28;691;-60
2022/05/19 01:45:38;;;;;;;;;;;;;;;20.97;64.65;101413.00;1053710;28;689;-59
2022/05/19 01:46:28;;;;;;;;;;;;;;;20.97;64.68;101413.00;1052184;28;665;-60
2022/05/19 01:47:19;;;;;;;;;;;;;;;20.98;65.08;101408.44;1049440;28;741;-60
2022/05/19 01:48:09;;;;;;;;;;;;;;;20.96;64.96;101411.28;1048092;28;702;-60
2022/05/19 01:48:59;;;;;;;;;;;;;;;20.96;65.26;101414.00;1050195;28;1229;-61
2022/05/19 01:49:50;;;;;;;;;;;;;;;20.98;64.88;101413.84;1053497;28;657;-60
2022/05/19 01:50:41;;;;;;;;;;;;;;;20.96;65.32;101414.00;1053462;28;1231;-60
2022/05/19 01:51:31;;;;;;;;;;;;;;;20.96;64.94;101405.88;1053583;28;653;-60
2022/05/19 01:52:22;;;;;;;;;;;;;;;20.96;65.16;101405.88;1053378;28;720;-60
2022/05/19 01:53:12;;;;;;;;;;;;;;;20.97;65.20;101407.56;1052897;28;622;-60
2022/05/19 01:54:03;;;;;;;;;;;;;;;20.96;65.08;101408.56;1052519;28;748;-59
2022/05/19 01:54:53;;;;;;;;;;;;;;;20.97;65.13;101406.72;1052837;28;661;-59
2022/05/19 01:55:44;;;;;;;;;;;;;;;20.97;65.05;101410.28;1052983;28;721;-59
2022/05/19 01:56:34;;;;;;;;;;;;;;;20.97;65.35;101409.44;1052659;28;1440;-60
2022/05/19 01:57:24;;;;;;;;;;;;;;;20.98;65.09;101413.84;1053611;28;673;-59
2022/05/19 01:58:15;;;;;;;;;;;;;;;20.96;65.11;101405.88;1053546;28;717;-60
2022/05/19 01:59:05;;;;;;;;;;;;;;;20.96;65.45;101408.56;1052788;28;642;-59
2022/05/19 01:59:56;;;;;;;;;;;;;;;20.96;65.06;101408.56;1053046;28;956;-59
2022/05/19 02:00:46;;;;;;;;;;;;;;;20.96;65.34;101407.75;1051684;28;650;-59
2022/05/19 02:01:37;;;;;;;;;;;;;;;20.95;64.95;101404.19;1052895;28;1959;-60
2022/05/19 02:02:27;;;;;;;;;;;;;;;20.96;65.17;101410.47;1048314;28;725;-59
2022/05/19 02:03:17;;;;;;;;;;;;;;;20.96;64.80;101405.88;1049638;28;673;-59
2022/05/19 02:04:14;;;;;;;;;;;;;;;20.96;65.23;101414.00;1053889;28;642;-59
2022/05/19 02:05:05;;;;;;;;;;;;;;;20.96;65.10;101413.19;1053179;28;1458;-59
2022/05/19 02:05:55;;;;;;;;;;;;;;;20.96;65.26;101414.00;1053432;28;1304;-59
2022/05/19 02:06:46;;;;;;;;;;;;;;;20.95;65.35;101404.19;1053545;28;666;-59
2022/05/19 02:07:36;;;;;;;;;;;;;;;20.96;65.20;101410.47;1053530;28;1258;-60
2022/05/19 02:08:27;;;;;;;;;;;;;;;20.96;65.49;101405.88;1053299;28;704;-60
2022/05/19 02:09:18;;;;;;;;;;;;;;;20.95;65.36;101409.63;1048841;28;1668;-61
2022/05/19 02:10:08;;;;;;;;;;;;;;;20.96;65.23;101408.56;1048882;28;744;-60
2022/05/19 02:10:58;;;;;;;;;;;;;;;20.95;65.15;101397.91;1049072;28;629;-61
2022/05/19 02:11:49;;;;;;;;;;;;;;;20.95;65.15;101398.78;1049142;28;674;-61
2022/05/19 02:12:39;;;;;;;;;;;;;;;20.95;65.22;101396.06;1048977;28;677;-60
2022/05/19 02:13:30;;;;;;;;;;;;;;;20.96;65.26;101397.75;1052972;28;650;-61
2022/05/19 02:14:20;;;;;;;;;;;;;;;20.94;65.25;101394.34;1054070;28;679;-60
2022/05/19 02:15:11;;;;;;;;;;;;;;;20.96;64.97;101394.22;1051250;28;1447;-60
2022/05/19 02:16:01;;;;;;;;;;;;;;;20.95;65.25;101387.94;1050183;28;621;-61
2022/05/19 02:16:52;;;;;;;;;;;;;;;20.94;65.09;101388.94;1048965;28;633;-61
2022/05/19 02:17:42;;;;;;;;;;;;;;;20.95;65.40;101393.34;1049049;28;709;-61
2022/05/19 02:18:33;;;;;;;;;;;;;;;20.94;65.13;101388.94;1048988;28;661;-61
2022/05/19 02:19:23;;;;;;;;;;;;;;;20.95;65.33;101398.78;1052696;28;666;-61
2022/05/19 02:20:13;;;;;;;;;;;;;;;20.94;65.21;101394.34;1054068;28;684;-60
2022/05/19 02:21:04;;;;;;;;;;;;;;;20.94;65.50;101390.78;1049774;28;712;-61
2022/05/19 02:21:54;;;;;;;;;;;;;;;20.94;65.23;101388.94;1048776;28;1952;-61
2022/05/19 02:22:45;;;;;;;;;;;;;;;20.94;64.97;101386.22;1048530;28;665;-61
2022/05/19 02:23:35;;;;;;;;;;;;;;;20.93;65.36;101384.53;1049277;28;614;-61
2022/05/19 02:24:26;;;;;;;;;;;;;;;20.94;65.32;101380.81;1049921;28;649;-60
2022/05/19 02:25:16;;;;;;;;;;;;;;;20.93;65.33;101376.41;1051361;28;1533;-60
2022/05/19 02:26:07;;;;;;;;;;;;;;;20.94;65.17;101379.97;1050172;28;645;-61
2022/05/19 02:26:57;;;;;;;;;;;;;;;20.93;65.06;101373.69;1049468;28;610;-60
2022/05/19 02:27:48;;;;;;;;;;;;;;;20.94;65.15;101380.81;1048347;28;812;-60
2022/05/19 02:28:38;;;;;;;;;;;;;;;20.94;65.28;101375.38;1049331;28;615;-61
2022/05/19 02:29:28;;;;;;;;;;;;;;;20.93;65.51;101381.81;1053642;28;637;-61
2022/05/19 02:30:19;;;;;;;;;;;;;;;20.93;65.18;101375.53;1054317;28;661;-60
2022/05/19 02:31:09;;;;;;;;;;;;;;;20.94;65.18;101379.97;1054317;28;680;-61
2022/05/19 02:32:00;;;;;;;;;;;;;;;20.92;65.08;101371.97;1054385;28;613;-61
2022/05/19 02:32:50;;;;;;;;;;;;;;;20.93;65.50;101375.53;1054840;28;628;-61
2022/05/19 02:33:41;;;;;;;;;;;;;;;20.93;64.99;101379.09;1050521;28;673;-60
2022/05/19 02:34:31;;;;;;;;;;;;;;;20.93;65.33;101380.97;1054166;28;657;-60
2022/05/19 02:35:22;;;;;;;;;;;;;;;20.92;65.11;101377.41;1053712;28;1623;-61
2022/05/19 02:36:12;;;;;;;;;;;;;;;20.93;65.49;101386.38;1049960;28;677;-61
2022/05/19 02:37:03;;;;;;;;;;;;;;;20.92;65.33;101379.25;1050052;28;1351;-60
2022/05/19 02:37:53;;;;;;;;;;;;;;;20.92;65.29;101374.69;1052897;28;665;-61
2022/05/19 02:38:44;;;;;;;;;;;;;;;20.92;65.36;101376.53;1052337;28;1651;-61
2022/05/19 02:39:34;;;;;;;;;;;;;;;20.92;65.53;101374.69;1053011;28;594;-61
2022/05/19 02:40:25;;;;;;;;;;;;;;;20.92;65.26;101376.53;1053040;28;674;-61
2022/05/19 02:41:15;;;;;;;;;;;;;;;20.90;65.58;101382.13;1056847;28;622;-61
2022/05/19 02:42:06;;;;;;;;;;;;;;;20.91;65.11;101381.13;1058135;28;688;-60
2022/05/19 02:42:56;;;;;;;;;;;;;;;20.91;65.13;101383.81;1053704;28;621;-59
2022/05/19 02:43:46;;;;;;;;;;;;;;;20.92;65.36;101382.81;1053008;28;625;-61
2022/05/19 02:44:37;;;;;;;;;;;;;;;20.90;65.51;101384.81;1053208;28;665;-61
2022/05/19 02:45:27;;;;;;;;;;;;;;;20.91;65.58;101388.38;1052205;28;1486;-60
2022/05/19 02:46:18;;;;;;;;;;;;;;;20.91;65.65;101388.38;1054201;28;598;-60
2022/05/19 02:47:08;;;;;;;;;;;;;;;20.90;65.46;101382.13;1050359;28;1675;-60
2022/05/19 02:47:58;;;;;;;;;;;;;;;20.91;65.59;101391.94;1049501;28;595;-60
2022/05/19 02:48:49;;;;;;;;;;;;;;;20.90;65.37;101387.53;1049001;28;646;-61
2022/05/19 02:49:39;;;;;;;;;;;;;;;20.91;65.32;101383.81;1049391;28;681;-61
2022/05/19 02:50:30;;;;;;;;;;;;;;;20.91;65.50;101380.25;1049925;28;586;-60
2022/05/19 02:51:20;;;;;;;;;;;;;;;20.90;65.48;101384.81;1049960;28;701;-61
2022/05/19 02:52:11;;;;;;;;;;;;;;;20.90;65.70;101379.41;1049395;28;697;-61
2022/05/19 02:53:01;;;;;;;;;;;;;;;20.91;65.41;101391.09;1050499;28;673;-62
2022/05/19 02:53:51;;;;;;;;;;;;;;;20.90;65.65;101387.53;1052729;28;641;-61
2022/05/19 02:54:42;;;;;;;;;;;;;;;20.90;65.41;101387.53;1052020;28;716;-61
2022/05/19 02:55:32;;;;;;;;;;;;;;;20.90;65.52;101384.81;1055317;28;1246;-61
2022/05/19 02:56:23;;;;;;;;;;;;;;;20.90;65.48;101390.25;1058164;28;692;-60
2022/05/19 02:57:13;;;;;;;;;;;;;;;20.90;65.45;101390.25;1052840;28;724;-60
2022/05/19 02:58:03;;;;;;;;;;;;;;;20.91;65.35;101401.94;1045666;28;641;-60
2022/05/19 02:58:54;;;;;;;;;;;;;;;20.90;65.44;101403.78;1049403;28;670;-61
2022/05/19 02:59:44;;;;;;;;;;;;;;;20.89;65.54;101404.78;1053564;28;623;-60
2022/05/19 03:00:35;;;;;;;;;;;;;;;20.89;65.49;101415.63;1054363;28;700;-60
2022/05/19 03:01:25;;;;;;;;;;;;;;;20.90;65.51;101447.13;1054226;28;622;-59
2022/05/19 03:02:15;;;;;;;;;;;;;;;20.91;65.61;101497.63;1054240;28;665;-59
2022/05/19 03:03:06;;;;;;;;;;;;;;;20.91;65.45;101532.84;1054177;28;638;-60
2022/05/19 03:03:56;;;;;;;;;;;;;;;20.91;65.40;101545.53;1054230;28;740;-59
2022/05/19 03:04:47;;;;;;;;;;;;;;;20.91;65.30;101561.78;1054216;28;716;-60
2022/05/19 03:05:37;;;;;;;;;;;;;;;20.92;65.52;101566.22;1051519;28;1253;-60
2022/05/19 03:06:28;;;;;;;;;;;;;;;20.91;65.56;101578.91;1053774;28;693;-59
2022/05/19 03:07:19;;;;;;;;;;;;;;;20.91;65.68;101587.03;1045624;28;1322;-60
2022/05/19 03:08:10;;;;;;;;;;;;;;;20.90;65.54;101598.88;1050366;28;657;-60
2022/05/19 03:09:00;;;;;;;;;;;;;;;20.91;65.77;101597.03;1052691;28;1687;-60
2022/05/19 03:09:50;;;;;;;;;;;;;;;20.90;65.99;101593.47;1052989;28;795;-59
2022/05/19 03:10:41;;;;;;;;;;;;;;;20.90;65.66;101590.75;1052838;28;674;-60
2022/05/19 03:11:31;;;;;;;;;;;;;;;20.88;65.67;101587.31;1052863;28;665;-60
2022/05/19 03:12:22;;;;;;;;;;;;;;;20.89;65.73;101580.91;1053546;28;676;-60
2022/05/19 03:13:12;;;;;;;;;;;;;;;20.88;65.67;101584.63;1052699;28;670;-59
2022/05/19 03:14:05;;;;;;;;;;;;;;;20.88;65.49;101575.63;1053612;28;579;-60
2022/05/19 03:14:56;;;;;;;;;;;;;;;20.88;65.61;101573.78;1053131;28;1493;-59
2022/05/19 03:15:47;;;;;;;;;;;;;;;20.90;65.58;101569.06;1055031;28;1389;-60
2022/05/19 03:16:38;;;;;;;;;;;;;;;20.86;65.63;101572.22;1054706;28;677;-60
2022/05/19 03:17:28;;;;;;;;;;;;;;;20.85;65.76;101565.94;1055863;28;677;-60
2022/05/19 03:18:19;;;;;;;;;;;;;;;20.81;65.97;101569.94;1054156;28;697;-59
2022/05/19 03:19:09;;;;;;;;;;;;;;;20.86;65.61;101566.81;1056249;28;778;-60
2022/05/19 03:20:00;;;;;;;;;;;;;;;20.85;65.72;101574.06;1054382;28;609;-60
2022/05/19 03:20:50;;;;;;;;;;;;;;;20.89;65.48;101580.06;1059296;28;634;-60
2022/05/19 03:21:38;;;;;;;;;;;;;;;20.89;65.72;101583.63;1050458;23;1886;-59
2022/05/19 03:22:29;;;;;;;;;;;;;;;20.89;65.68;101570.06;1044961;28;670;-59
2022/05/19 03:23:19;;;;;;;;;;;;;;;20.87;65.70;101563.94;1055196;22;1631;-60
2022/05/19 03:24:10;;;;;;;;;;;;;;;20.87;65.70;101557.66;1042403;28;725;-60
2022/05/19 03:25:00;;;;;;;;;;;;;;;20.88;65.58;101559.38;1041421;28;1527;-60
2022/05/19 03:25:50;;;;;;;;;;;;;;;20.86;65.89;101559.53;1037755;28;1382;-60
2022/05/19 03:26:41;;;;;;;;;;;;;;;20.86;65.61;101567.66;1037135;28;753;-60
2022/05/19 03:27:31;;;;;;;;;;;;;;;20.87;65.68;101568.50;1038263;28;706;-60
2022/05/19 03:28:22;;;;;;;;;;;;;;;20.87;65.74;101571.22;1038716;28;988;-60
2022/05/19 03:29:12;;;;;;;;;;;;;;;20.86;65.81;101570.38;1038361;28;635;-60
2022/05/19 03:30:03;;;;;;;;;;;;;;;20.87;65.65;101568.50;1038183;28;1403;-59
2022/05/19 03:30:53;;;;;;;;;;;;;;;20.87;65.75;101576.63;1041338;28;675;-59
2022/05/19 03:31:43;;;;;;;;;;;;;;;20.87;65.48;101574.78;1041133;28;665;-58
2022/05/19 03:32:34;;;;;;;;;;;;;;;20.87;65.64;101585.63;1041233;28;670;-58
2022/05/19 03:33:24;;;;;;;;;;;;;;;20.87;65.49;101591.03;1040573;28;643;-58
2022/05/19 03:34:17;;;;;;;;;;;;;;;20.87;66.01;101593.75;1040971;28;631;-59
2022/05/19 03:35:07;;;;;;;;;;;;;;;20.87;65.79;101592.88;1039735;28;1546;-59
2022/05/19 03:35:57;;;;;;;;;;;;;;;20.86;65.98;101589.31;1040195;28;1263;-59
2022/05/19 03:36:49;;;;;;;;;;;;;;;20.88;65.98;101602.72;1041113;28;667;-59
2022/05/19 03:37:39;;;;;;;;;;;;;;;20.87;66.01;101599.16;1041324;28;1416;-59
2022/05/19 03:38:30;;;;;;;;;;;;;;;20.87;65.74;101599.16;1041508;28;654;-60
2022/05/19 03:39:20;;;;;;;;;;;;;;;20.86;65.78;101602.03;1037516;28;689;-59
2022/05/19 03:40:10;;;;;;;;;;;;;;;20.86;65.76;101597.47;1037205;28;729;-59
2022/05/19 03:41:01;;;;;;;;;;;;;;;20.89;65.73;101599.88;1040236;28;673;-60
2022/05/19 03:41:51;;;;;;;;;;;;;;;20.87;65.88;101596.47;1036302;28;1891;-59
2022/05/19 03:42:42;;;;;;;;;;;;;;;20.86;65.61;101592.03;1036827;28;713;-60
2022/05/19 03:43:32;;;;;;;;;;;;;;;20.86;66.12;101597.47;1036957;28;705;-60
2022/05/19 03:44:22;;;;;;;;;;;;;;;20.87;66.10;101596.47;1036879;28;679;-60
2022/05/19 03:45:13;;;;;;;;;;;;;;;20.87;66.03;101596.47;1037179;28;1703;-60
2022/05/19 03:46:04;;;;;;;;;;;;;;;20.87;65.94;101607.28;1036965;28;658;-60
2022/05/19 03:46:54;;;;;;;;;;;;;;;20.88;65.74;101597.31;1033358;28;659;-60
2022/05/19 03:47:45;;;;;;;;;;;;;;;20.87;65.75;101603.72;1032824;28;646;-59
2022/05/19 03:48:35;;;;;;;;;;;;;;;20.87;65.81;101595.59;1037134;28;671;-59
2022/05/19 03:49:25;;;;;;;;;;;;;;;20.86;66.19;101589.31;1036810;28;675;-60
2022/05/19 03:50:16;;;;;;;;;;;;;;;20.86;65.89;101583.91;1036418;28;649;-60
2022/05/19 03:51:06;;;;;;;;;;;;;;;20.87;65.91;101590.19;1037413;28;701;-59
2022/05/19 03:51:57;;;;;;;;;;;;;;;20.86;65.86;101583.06;1035807;28;675;-59
2022/05/19 03:52:47;;;;;;;;;;;;;;;20.85;65.71;101587.63;1036598;28;669;-60
2022/05/19 03:53:38;;;;;;;;;;;;;;;20.87;65.79;101579.34;1036547;28;658;-59
2022/05/19 03:54:28;;;;;;;;;;;;;;;20.87;65.85;101577.50;1036749;28;524;-59
2022/05/19 03:55:19;;;;;;;;;;;;;;;20.87;65.97;101572.06;1037841;28;1346;-59
2022/05/19 03:56:10;;;;;;;;;;;;;;;20.86;66.04;101581.19;1036921;28;698;-60
2022/05/19 03:57:00;;;;;;;;;;;;;;;20.86;65.76;101581.19;1037432;28;646;-59
2022/05/19 03:57:51;;;;;;;;;;;;;;;20.86;65.95;101589.31;1037434;28;705;-59
2022/05/19 03:58:41;;;;;;;;;;;;;;;20.86;66.01;101583.06;1036926;28;674;-59
2022/05/19 03:59:31;;;;;;;;;;;;;;;20.85;65.90;101574.06;1036814;28;651;-59
2022/05/19 04:00:22;;;;;;;;;;;;;;;20.87;66.03;101571.22;1036894;28;657;-59
2022/05/19 04:01:12;;;;;;;;;;;;;;;20.86;66.15;101569.50;1036108;28;619;-59
2022/05/19 04:02:03;;;;;;;;;;;;;;;20.85;66.22;101563.22;1036341;28;1946;-59
2022/05/19 04:02:53;;;;;;;;;;;;;;;20.85;65.58;101565.94;1036197;28;721;-60
2022/05/19 04:03:44;;;;;;;;;;;;;;;20.85;66.13;101565.94;1039939;28;662;-59
2022/05/19 04:04:34;;;;;;;;;;;;;;;20.85;65.79;101555.09;1036368;28;737;-59
2022/05/19 04:05:25;;;;;;;;;;;;;;;20.85;66.20;101554.25;1042774;28;1488;-60
2022/05/19 04:06:15;;;;;;;;;;;;;;;20.84;65.86;101550.69;1041600;28;698;-59
2022/05/19 04:07:06;;;;;;;;;;;;;;;20.84;66.01;101547.97;1036494;28;662;-59
2022/05/19 04:07:56;;;;;;;;;;;;;;;20.84;66.25;101542.56;1033645;28;615;-59
2022/05/19 04:08:46;;;;;;;;;;;;;;;20.84;65.86;101545.28;1040527;28;1458;-59
2022/05/19 04:09:37;;;;;;;;;;;;;;;20.84;65.86;101533.56;1040145;28;679;-59
2022/05/19 04:10:27;;;;;;;;;;;;;;;20.83;66.18;101535.44;1039142;28;1661;-60
2022/05/19 04:11:18;;;;;;;;;;;;;;;20.83;65.84;101531.88;1039974;28;638;-60
2022/05/19 04:12:09;;;;;;;;;;;;;;;20.84;66.14;101531.72;1041560;28;606;-60
2022/05/19 04:12:59;;;;;;;;;;;;;;;20.83;66.01;101535.44;1040961;28;635;-60
2022/05/19 04:13:50;;;;;;;;;;;;;;;20.83;65.84;101543.56;1039750;28;705;-60
2022/05/19 04:14:41;;;;;;;;;;;;;;;20.84;66.29;101542.56;1042064;28;642;-60
2022/05/19 04:15:31;;;;;;;;;;;;;;;20.84;66.04;101537.13;1037614;28;1495;-60
2022/05/19 04:16:21;;;;;;;;;;;;;;;20.84;66.05;101541.72;1036150;28;619;-60
2022/05/19 04:17:12;;;;;;;;;;;;;;;20.84;66.03;101539.00;1037123;28;714;-60
2022/05/19 04:18:02;;;;;;;;;;;;;;;20.84;66.11;101539.84;1037299;28;681;-60
2022/05/19 04:18:53;;;;;;;;;;;;;;;20.84;66.15;101536.28;1036379;28;658;-61
2022/05/19 04:19:43;;;;;;;;;;;;;;;20.83;66.08;101543.56;1036352;28;647;-60
2022/05/19 04:20:33;;;;;;;;;;;;;;;20.83;66.18;101554.41;1036127;28;685;-61
2022/05/19 04:21:24;;;;;;;;;;;;;;;20.84;66.18;101557.97;1036838;28;741;-60
2022/05/19 04:22:15;;;;;;;;;;;;;;;20.86;66.18;101555.97;1037515;28;646;-60
2022/05/19 04:23:05;;;;;;;;;;;;;;;20.84;66.13;101560.66;1039960;28;698;-61
2022/05/19 04:23:56;;;;;;;;;;;;;;;20.84;66.13;101564.25;1036746;28;686;-60
2022/05/19 04:24:46;;;;;;;;;;;;;;;20.84;66.07;101566.94;1036864;28;709;-60
2022/05/19 04:25:37;;;;;;;;;;;;;;;20.85;66.38;101573.22;1039596;28;1262;-61
2022/05/19 04:26:27;;;;;;;;;;;;;;;20.86;66.02;101577.63;1039803;28;1158;-61